X  Zamknij Lotniskowe dane METAR     EDDM Munich Airport
Temperatura
70°F Temperatura
52°F Punkt rosy
53% Wilgotność



Wiatr
5 MPH
8 KM/H
2 M/S
4 KTS



280°
W
Warunki bieżące

Częściowe zachmurzenie Częściowe zachmurzenie
Ciśnienie 1010.84 (hPa) - 29.85 (inHg)
Widoczność 6 (mil) - 9.7 (km)
Lotnisko
Kod lotniska EDDM

Położenie: Munich Airport
Odległość: 73 (mi)

Metar:
EDDM 191450Z AUTO 28004KT 240V360 9999 FEW048 21/11 Q1011 NOSIG

Czas: 19-05-2024 14:50 CEST